Time;durP1;ratioP1;P1;durP2;ratioP2;P2;SDS_P1;SDS_P2;PMS_P1;PMS_P2;Temp;Humidity;BMP_temperature;BMP_pressure;BME280_temperature;BME280_humidity;BME280_pressure;Samples;Min_cycle;Max_cycle;Signal;HPM_P1;HPM_P2
2023/08/11 10:44:04;;;;;;;;;6.40;6.40;;;;;;;;5103561;27;13443;-66
2023/08/11 10:46:30;;;;;;;;;5.80;5.00;;;;;;;;5107089;28;9581;-66
2023/08/11 10:48:59;;;;;;;;;6.00;6.00;;;;;;;;5106566;28;8822;-66
2023/08/11 10:51:27;;;;;;;;;7.00;7.00;;;;;;;;5063426;27;10719;-67
2023/08/11 10:53:53;;;;;;;;;16.25;15.25;;;;;;;;5053803;28;8831;-64
2023/08/11 10:56:26;;;;;;;;;6.00;6.00;;;;;;;;5045173;28;8816;-64
2023/08/11 10:58:51;;;;;;;;;11.40;11.40;;;;;;;;5046964;28;8815;-65
2023/08/11 11:01:17;;;;;;;;;8.67;8.67;;;;;;;;5046982;28;8815;-65
2023/08/11 11:03:42;;;;;;;;;19.33;19.00;;;;;;;;5046861;28;8897;-65
2023/08/11 11:06:08;;;;;;;;;18.67;18.67;;;;;;;;5053612;28;8816;-65
2023/08/11 11:08:33;;;;;;;;;20.00;20.00;;;;;;;;5066787;28;8800;-64
2023/08/11 11:10:59;;;;;;;;;24.67;22.00;;;;;;;;5066823;28;8801;-63
2023/08/11 11:13:24;;;;;;;;;18.00;17.00;;;;;;;;5066135;28;8893;-63
2023/08/11 11:15:49;;;;;;;;;21.00;21.00;;;;;;;;5066604;28;8817;-66
2023/08/11 11:18:15;;;;;;;;;21.67;21.67;;;;;;;;5066487;28;9522;-66
2023/08/11 11:20:40;;;;;;;;;12.00;12.00;;;;;;;;5066307;28;8769;-64
2023/08/11 11:23:05;;;;;;;;;17.33;16.33;;;;;;;;5027748;28;10925;-65
2023/08/11 11:25:30;;;;;;;;;20.33;18.67;;;;;;;;5060562;28;8833;-65
2023/08/11 11:27:56;;;;;;;;;8.33;8.00;;;;;;;;5046392;28;8777;-65
2023/08/11 11:30:21;;;;;;;;;10.00;10.00;;;;;;;;5046665;28;9366;-63
2023/08/11 11:32:48;;;;;;;;;8.33;7.67;;;;;;;;5047038;28;8811;-64
2023/08/11 11:35:14;;;;;;;;;8.00;7.75;;;;;;;;5046606;28;8785;-67
2023/08/11 11:37:40;;;;;;;;;5.67;5.67;;;;;;;;5046595;28;8888;-66
2023/08/11 11:40:06;;;;;;;;;8.00;8.00;;;;;;;;5045325;28;9606;-65
2023/08/11 11:42:33;;;;;;;;;8.00;8.00;;;;;;;;5046232;28;8853;-64
2023/08/11 11:44:59;;;;;;;;;8.25;8.25;;;;;;;;5046333;28;8820;-64
2023/08/11 11:47:26;;;;;;;;;8.67;8.67;;;;;;;;5046541;28;9536;-64
2023/08/11 11:49:58;;;;;;;;;7.75;7.75;;;;;;;;5046066;28;8900;-65
2023/08/11 11:52:27;;;;;;;;;6.25;6.25;;;;;;;;5061699;28;8817;-66
2023/08/11 11:54:52;;;;;;;;;20.25;20.25;;;;;;;;5034149;28;8833;-65
2023/08/11 11:57:18;;;;;;;;;5.33;5.33;;;;;;;;5032882;28;8809;-66
2023/08/11 11:59:44;;;;;;;;;26.67;26.67;;;;;;;;5033069;28;8839;-65
2023/08/11 12:02:12;;;;;;;;;6.50;6.50;;;;;;;;5033471;28;8821;-65
2023/08/11 12:04:39;;;;;;;;;22.50;21.00;;;;;;;;5032746;28;8912;-65
2023/08/11 12:07:07;;;;;;;;;21.75;18.00;;;;;;;;5032386;28;8805;-65
2023/08/11 12:09:33;;;;;;;;;24.25;24.00;;;;;;;;5032420;28;8786;-65
2023/08/11 12:11:58;;;;;;;;;35.33;31.33;;;;;;;;5032813;28;8848;-65
2023/08/11 12:14:27;;;;;;;;;8.00;8.00;;;;;;;;5029083;28;9520;-64
2023/08/11 12:16:52;;;;;;;;;16.50;15.50;;;;;;;;5027867;28;8883;-67
2023/08/11 12:19:18;;;;;;;;;26.67;24.00;;;;;;;;5047297;28;8810;-65
2023/08/11 12:21:43;;;;;;;;;25.33;23.33;;;;;;;;5031919;28;8824;-66
2023/08/11 12:24:11;;;;;;;;;8.33;8.33;;;;;;;;5032069;28;8793;-64
2023/08/11 12:26:36;;;;;;;;;13.25;13.25;;;;;;;;5032880;28;8881;-66
2023/08/11 12:29:02;;;;;;;;;16.33;16.00;;;;;;;;5034593;28;8798;-62
2023/08/11 12:31:27;;;;;;;;;20.67;19.67;;;;;;;;5032890;28;8805;-64
2023/08/11 12:33:52;;;;;;;;;20.67;20.00;;;;;;;;5032829;28;8797;-63
2023/08/11 12:36:18;;;;;;;;;20.00;19.67;;;;;;;;5034136;28;8824;-63
2023/08/11 12:38:43;;;;;;;;;26.67;24.33;;;;;;;;5051872;28;8798;-63
2023/08/11 12:41:08;;;;;;;;;28.67;25.67;;;;;;;;5052097;28;8810;-63
2023/08/11 12:43:33;;;;;;;;;7.00;6.00;;;;;;;;5052087;28;8822;-65
2023/08/11 12:45:59;;;;;;;;;7.00;5.67;;;;;;;;5036961;28;8797;-65
2023/08/11 12:48:24;;;;;;;;;15.00;14.33;;;;;;;;5031390;28;9077;-66
2023/08/11 12:50:49;;;;;;;;;6.00;6.00;;;;;;;;5031129;28;8781;-67
2023/08/11 12:53:15;;;;;;;;;6.00;6.00;;;;;;;;5032929;28;8805;-67
2023/08/11 12:55:40;;;;;;;;;6.33;6.33;;;;;;;;5041261;28;8830;-66
2023/08/11 12:58:06;;;;;;;;;5.00;5.00;;;;;;;;5022391;28;8853;-66
2023/08/11 13:00:31;;;;;;;;;16.33;16.33;;;;;;;;5040236;28;8818;-67
2023/08/11 13:02:57;;;;;;;;;17.00;16.00;;;;;;;;5041622;28;8963;-67
2023/08/11 13:05:22;;;;;;;;;6.67;6.00;;;;;;;;5039502;28;8856;-68
2023/08/11 13:07:47;;;;;;;;;16.00;15.33;;;;;;;;5033322;28;8778;-67
2023/08/11 13:10:13;;;;;;;;;7.00;6.00;;;;;;;;5031146;28;8894;-68
2023/08/11 13:12:41;;;;;;;;;16.33;15.00;;;;;;;;5029203;28;10924;-68
2023/08/11 13:15:07;;;;;;;;;19.00;18.00;;;;;;;;5049622;28;9593;-67
2023/08/11 13:17:32;;;;;;;;;6.33;6.33;;;;;;;;5047100;28;8920;-67
2023/08/11 13:20:01;;;;;;;;;5.00;5.00;;;;;;;;5049891;28;8822;-68
2023/08/11 13:22:26;;;;;;;;;6.00;6.00;;;;;;;;5049434;28;8841;-67
2023/08/11 13:24:51;;;;;;;;;7.33;6.00;;;;;;;;5047937;28;8858;-68
2023/08/11 13:27:16;;;;;;;;;7.00;5.33;;;;;;;;5047680;28;8884;-67
2023/08/11 13:29:42;;;;;;;;;6.00;6.00;;;;;;;;5049231;28;8805;-68
2023/08/11 13:32:07;;;;;;;;;13.33;11.00;;;;;;;;5049347;28;8793;-67
2023/08/11 13:34:32;;;;;;;;;5.00;5.00;;;;;;;;5049082;28;8797;-67
2023/08/11 13:36:57;;;;;;;;;6.33;6.33;;;;;;;;5049066;28;8800;-68
2023/08/11 13:39:23;;;;;;;;;8.00;6.33;;;;;;;;5049176;28;9636;-67
2023/08/11 13:41:48;;;;;;;;;7.00;7.00;;;;;;;;5048926;28;8821;-67
2023/08/11 13:44:13;;;;;;;;;4.33;4.33;;;;;;;;5047713;28;8817;-67
2023/08/11 13:46:39;;;;;;;;;7.00;7.00;;;;;;;;5050681;28;8900;-66
2023/08/11 13:49:04;;;;;;;;;15.67;15.67;;;;;;;;5050324;28;9578;-66
2023/08/11 13:51:30;;;;;;;;;6.00;6.00;;;;;;;;5050911;28;8793;-66
2023/08/11 13:53:55;;;;;;;;;10.33;10.33;;;;;;;;5050351;28;9563;-65
2023/08/11 13:56:21;;;;;;;;;9.33;8.33;;;;;;;;5048079;28;8801;-65
2023/08/11 13:58:46;;;;;;;;;6.33;6.33;;;;;;;;5049450;28;8831;-66
2023/08/11 14:01:11;;;;;;;;;6.00;6.00;;;;;;;;5050368;28;8805;-66
2023/08/11 14:03:37;;;;;;;;;6.33;6.33;;;;;;;;5050369;28;8824;-65
2023/08/11 14:06:02;;;;;;;;;15.67;15.33;;;;;;;;5050273;28;8789;-65
2023/08/11 14:08:27;;;;;;;;;5.00;5.00;;;;;;;;5050654;28;8919;-65
2023/08/11 14:10:53;;;;;;;;;5.00;5.00;;;;;;;;5049042;28;8813;-65
2023/08/11 14:13:23;;;;;;;;;5.33;5.33;;;;;;;;5050768;28;8802;-66
2023/08/11 14:15:48;;;;;;;;;5.00;5.00;;;;;;;;5050572;28;8948;-65
2023/08/11 14:18:13;;;;;;;;;6.00;6.00;;;;;;;;5043756;28;8912;-66
2023/08/11 14:20:39;;;;;;;;;6.00;6.00;;;;;;;;5035820;28;8812;-66
2023/08/11 14:23:04;;;;;;;;;5.67;4.67;;;;;;;;5030750;28;8909;-65
2023/08/11 14:25:29;;;;;;;;;6.67;5.67;;;;;;;;5030487;28;8791;-65
2023/08/11 14:27:55;;;;;;;;;6.67;5.33;;;;;;;;5030693;28;8910;-65
2023/08/11 14:30:20;;;;;;;;;7.00;7.00;;;;;;;;5030344;28;8780;-66
2023/08/11 14:32:45;;;;;;;;;6.00;6.00;;;;;;;;5030479;28;8816;-66
2023/08/11 14:35:10;;;;;;;;;14.33;14.33;;;;;;;;5029930;28;8818;-66
2023/08/11 14:37:36;;;;;;;;;6.00;5.67;;;;;;;;5049184;28;8809;-66
2023/08/11 15:23:29;;;;;;;;;5.75;5.75;;;;;;;;5103077;27;13405;-69
2023/08/11 15:25:54;;;;;;;;;5.50;5.00;;;;;;;;5098085;28;8832;-70
2023/08/11 15:28:19;;;;;;;;;7.00;7.00;;;;;;;;5099446;28;8856;-68
2023/08/11 15:30:45;;;;;;;;;4.00;4.00;;;;;;;;5108307;28;8795;-66
2023/08/11 15:33:10;;;;;;;;;4.00;4.00;;;;;;;;5108359;28;8826;-67
2023/08/11 15:35:38;;;;;;;;;6.00;6.00;;;;;;;;5104672;28;9550;-67
2023/08/11 15:38:03;;;;;;;;;4.50;3.25;;;;;;;;5087628;28;8798;-67
2023/08/11 15:40:28;;;;;;;;;5.00;4.67;;;;;;;;5097099;28;8832;-67
2023/08/11 15:42:54;;;;;;;;;4.00;4.00;;;;;;;;5096540;28;8849;-66
2023/08/11 15:45:19;;;;;;;;;4.33;4.33;;;;;;;;5107959;28;8796;-66
2023/08/11 15:47:44;;;;;;;;;4.00;4.00;;;;;;;;5107860;28;9630;-66
2023/08/11 15:50:09;;;;;;;;;3.00;3.00;;;;;;;;5106442;28;8822;-67
2023/08/11 15:52:35;;;;;;;;;5.00;5.00;;;;;;;;5107769;28;8930;-67
2023/08/11 15:55:00;;;;;;;;;3.67;3.67;;;;;;;;5107633;28;8768;-66
2023/08/11 15:57:26;;;;;;;;;3.00;3.00;;;;;;;;5107780;28;8784;-67
2023/08/11 15:59:51;;;;;;;;;4.00;4.00;;;;;;;;5107709;28;8876;-68
2023/08/11 16:02:17;;;;;;;;;4.67;4.67;;;;;;;;5107473;28;9640;-67
2023/08/11 16:04:42;;;;;;;;;5.00;5.00;;;;;;;;5107417;28;8807;-67
2023/08/11 16:07:07;;;;;;;;;6.00;5.00;;;;;;;;5091767;28;8847;-67
2023/08/11 16:09:32;;;;;;;;;5.00;5.00;;;;;;;;5087203;28;8786;-67
2023/08/11 16:11:58;;;;;;;;;6.00;6.00;;;;;;;;5087100;28;8790;-67
2023/08/11 16:14:26;;;;;;;;;4.67;4.67;;;;;;;;5086935;28;8872;-67
2023/08/11 16:16:52;;;;;;;;;6.50;6.00;;;;;;;;5069193;28;8810;-67
2023/08/11 16:19:17;;;;;;;;;6.00;6.00;;;;;;;;5086924;28;8889;-67
2023/08/11 16:21:42;;;;;;;;;5.33;3.67;;;;;;;;5087004;28;8839;-66
2023/08/11 16:24:08;;;;;;;;;5.00;5.00;;;;;;;;5085799;28;8937;-66
2023/08/11 16:26:33;;;;;;;;;5.33;5.33;;;;;;;;5086670;28;8806;-67
2023/08/11 16:28:59;;;;;;;;;5.33;4.00;;;;;;;;5085400;28;8846;-67
2023/08/11 16:31:24;;;;;;;;;4.33;4.33;;;;;;;;5085294;28;8818;-67
2023/08/11 16:33:49;;;;;;;;;7.00;6.00;;;;;;;;5078591;28;8798;-67
2023/08/11 16:36:14;;;;;;;;;6.00;5.00;;;;;;;;5071490;28;9545;-67
2023/08/11 16:38:40;;;;;;;;;5.67;5.67;;;;;;;;5073136;28;8912;-66
2023/08/11 16:41:06;;;;;;;;;6.67;6.67;;;;;;;;5072896;28;8803;-67
2023/08/11 16:43:31;;;;;;;;;6.00;6.00;;;;;;;;5072950;28;8806;-67
2023/08/11 16:45:56;;;;;;;;;5.00;5.00;;;;;;;;5072865;28;9532;-67
2023/08/11 16:48:21;;;;;;;;;6.67;6.67;;;;;;;;5072796;28;8812;-67
2023/08/11 16:50:47;;;;;;;;;5.33;5.33;;;;;;;;5072844;28;8786;-67
2023/08/11 16:53:15;;;;;;;;;7.67;7.00;;;;;;;;5072666;28;8829;-67
2023/08/11 16:55:40;;;;;;;;;6.50;6.50;;;;;;;;5072982;28;8799;-67
2023/08/11 16:58:05;;;;;;;;;6.00;6.00;;;;;;;;5072806;28;8791;-67
2023/08/11 17:00:31;;;;;;;;;6.00;6.00;;;;;;;;5072797;28;8818;-67
2023/08/11 17:02:56;;;;;;;;;3.33;3.33;;;;;;;;5072598;28;8834;-67
2023/08/11 17:05:22;;;;;;;;;7.00;7.00;;;;;;;;5071509;28;8802;-67
2023/08/11 17:07:47;;;;;;;;;6.00;6.00;;;;;;;;5071220;28;9513;-67
2023/08/11 17:10:12;;;;;;;;;5.67;5.00;;;;;;;;5072411;28;8803;-67
2023/08/11 17:12:38;;;;;;;;;8.00;6.00;;;;;;;;5072552;28;8802;-66
2023/08/11 17:15:03;;;;;;;;;6.00;6.00;;;;;;;;5072540;28;8798;-67
2023/08/11 17:17:29;;;;;;;;;5.00;5.00;;;;;;;;5072298;28;8830;-68
2023/08/11 17:19:54;;;;;;;;;5.33;5.33;;;;;;;;5072324;28;8786;-67
2023/08/11 17:22:19;;;;;;;;;6.00;5.00;;;;;;;;5072440;28;8830;-66
2023/08/11 17:24:44;;;;;;;;;6.33;6.33;;;;;;;;5072479;28;8791;-68
2023/08/11 17:27:10;;;;;;;;;7.00;6.33;;;;;;;;5072241;28;8811;-67
2023/08/11 17:29:35;;;;;;;;;7.67;7.67;;;;;;;;5072125;28;8786;-67
2023/08/11 17:32:00;;;;;;;;;6.67;6.67;;;;;;;;5072066;28;8799;-67
2023/08/11 17:34:26;;;;;;;;;7.00;6.33;;;;;;;;5072119;28;8889;-68
2023/08/11 17:36:51;;;;;;;;;9.33;8.33;;;;;;;;5071994;28;8830;-67
2023/08/11 17:39:16;;;;;;;;;7.00;7.00;;;;;;;;5070835;28;8805;-67
2023/08/11 17:41:45;;;;;;;;;9.00;8.33;;;;;;;;5071956;28;8837;-67
2023/08/11 17:44:10;;;;;;;;;7.75;7.00;;;;;;;;5071766;28;8775;-67
2023/08/11 17:46:36;;;;;;;;;7.00;6.00;;;;;;;;5070850;28;8783;-68
2023/08/11 17:49:01;;;;;;;;;7.67;7.00;;;;;;;;5071964;28;8928;-67
2023/08/11 17:51:27;;;;;;;;;5.00;5.00;;;;;;;;5071572;28;8778;-67
2023/08/11 17:53:53;;;;;;;;;5.00;5.00;;;;;;;;5071715;28;8814;-65
2023/08/11 17:56:19;;;;;;;;;5.25;4.25;;;;;;;;5071559;28;8782;-66
2023/08/11 17:58:44;;;;;;;;;7.00;6.00;;;;;;;;5070334;28;8867;-64
2023/08/11 18:01:10;;;;;;;;;6.67;5.67;;;;;;;;5071542;28;8809;-64
2023/08/11 18:03:35;;;;;;;;;5.67;5.67;;;;;;;;5071395;28;8809;-64
2023/08/11 18:06:00;;;;;;;;;5.33;5.33;;;;;;;;5071486;28;8845;-64
2023/08/11 18:08:25;;;;;;;;;6.00;6.00;;;;;;;;5071405;28;8786;-63
2023/08/11 18:10:51;;;;;;;;;5.00;5.00;;;;;;;;5071328;28;9375;-63
2023/08/11 18:13:16;;;;;;;;;5.00;5.00;;;;;;;;5071471;28;8863;-65
2023/08/11 18:15:41;;;;;;;;;5.00;5.00;;;;;;;;5071174;28;8786;-66
2023/08/11 18:18:07;;;;;;;;;6.00;6.00;;;;;;;;5070209;28;8799;-65
2023/08/11 18:20:32;;;;;;;;;5.33;5.33;;;;;;;;5070070;28;8818;-65
2023/08/11 18:22:58;;;;;;;;;6.00;6.00;;;;;;;;5070822;28;8850;-66
2023/08/11 18:25:23;;;;;;;;;4.33;4.33;;;;;;;;5070687;28;8905;-65
2023/08/11 18:27:49;;;;;;;;;7.00;7.00;;;;;;;;5070501;28;8814;-63
2023/08/11 18:30:14;;;;;;;;;4.00;4.00;;;;;;;;5070555;28;8794;-64
2023/08/11 18:32:39;;;;;;;;;6.00;5.00;;;;;;;;5070222;28;8810;-64
2023/08/11 18:35:05;;;;;;;;;6.00;4.67;;;;;;;;5070343;28;9506;-64
2023/08/11 18:37:31;;;;;;;;;5.00;5.00;;;;;;;;5069162;28;8818;-66
2023/08/11 18:39:56;;;;;;;;;5.00;5.00;;;;;;;;5070572;28;8798;-65
2023/08/11 18:42:22;;;;;;;;;5.67;4.67;;;;;;;;5066412;28;8885;-64
2023/08/11 18:44:47;;;;;;;;;6.00;6.00;;;;;;;;5051652;28;8805;-64
2023/08/11 18:47:13;;;;;;;;;5.00;5.00;;;;;;;;5050164;28;8817;-65
2023/08/11 18:49:39;;;;;;;;;5.67;5.67;;;;;;;;5050407;28;8831;-63
2023/08/11 18:52:04;;;;;;;;;6.00;6.00;;;;;;;;5050192;28;8805;-64
2023/08/11 18:54:29;;;;;;;;;7.33;7.33;;;;;;;;5049028;28;8809;-63
2023/08/11 18:56:57;;;;;;;;;8.00;7.00;;;;;;;;5050012;28;8769;-62
2023/08/11 18:59:23;;;;;;;;;6.25;6.25;;;;;;;;5048727;28;8808;-63
2023/08/11 19:01:48;;;;;;;;;7.00;6.67;;;;;;;;5050093;28;8934;-66
2023/08/11 19:04:13;;;;;;;;;7.00;7.00;;;;;;;;5050479;28;8811;-62
2023/08/11 19:06:40;;;;;;;;;7.00;7.00;;;;;;;;5061565;28;8911;-64
2023/08/11 19:09:07;;;;;;;;;7.25;6.75;;;;;;;;5070300;28;9560;-62
2023/08/11 19:11:37;;;;;;;;;6.25;5.50;;;;;;;;5069679;28;8818;-65
2023/08/11 19:14:09;;;;;;;;;8.00;8.00;;;;;;;;5070408;28;8829;-65
2023/08/11 19:16:35;;;;;;;;;6.75;6.75;;;;;;;;5069958;28;8809;-68
2023/08/11 19:19:14;;;;;;;;;5.75;5.50;;;;;;;;5070297;28;8799;-66
2023/08/11 19:21:40;;;;;;;;;10.75;10.00;;;;;;;;5070005;28;9775;-67
2023/08/11 19:24:10;;;;;;;;;12.25;12.25;;;;;;;;5070049;28;8802;-67
2023/08/11 19:26:40;;;;;;;;;5.75;5.75;;;;;;;;5069938;28;8867;-67
2023/08/11 19:29:05;;;;;;;;;5.25;5.25;;;;;;;;5070200;28;8783;-68
2023/08/11 19:31:31;;;;;;;;;5.67;5.67;;;;;;;;5070222;28;8860;-68
2023/08/11 19:33:56;;;;;;;;;7.00;7.00;;;;;;;;5070051;28;8806;-68
2023/08/11 19:36:44;;;;;;;;;7.33;7.33;;;;;;;;5069835;28;8917;-67
2023/08/11 19:39:10;;;;;;;;;8.00;8.00;;;;;;;;5063638;28;8806;-67
2023/08/11 19:41:35;;;;;;;;;6.67;6.67;;;;;;;;5069807;28;9023;-68
2023/08/11 19:44:01;;;;;;;;;5.33;5.33;;;;;;;;5069940;28;8821;-70
2023/08/11 19:46:26;;;;;;;;;6.00;6.00;;;;;;;;5069608;28;8799;-69
2023/08/11 19:48:51;;;;;;;;;6.67;6.00;;;;;;;;5069702;28;8783;-68
2023/08/11 19:51:17;;;;;;;;;8.00;8.00;;;;;;;;5068983;28;8782;-66
2023/08/11 19:53:43;;;;;;;;;6.00;6.00;;;;;;;;5069158;28;8936;-67
2023/08/11 19:56:08;;;;;;;;;7.67;7.67;;;;;;;;5068475;28;9411;-66
2023/08/11 19:58:33;;;;;;;;;6.00;6.00;;;;;;;;5069299;28;11498;-65
2023/08/11 20:00:59;;;;;;;;;6.00;6.00;;;;;;;;5069699;28;8811;-65
2023/08/11 20:03:24;;;;;;;;;5.00;5.00;;;;;;;;5069538;28;8899;-66
2023/08/11 20:05:50;;;;;;;;;5.00;5.00;;;;;;;;5069506;28;8811;-70
2023/08/11 20:08:15;;;;;;;;;8.00;7.00;;;;;;;;5068071;28;8803;-67
2023/08/11 20:10:44;;;;;;;;;6.33;5.00;;;;;;;;5071794;28;8811;-65
2023/08/11 20:13:10;;;;;;;;;5.75;5.50;;;;;;;;5073344;28;8955;-69
2023/08/11 20:15:35;;;;;;;;;4.00;4.00;;;;;;;;5073161;28;9880;-68
2023/08/11 20:18:01;;;;;;;;;6.00;6.00;;;;;;;;5073178;28;8787;-68
2023/08/11 20:20:26;;;;;;;;;6.67;6.67;;;;;;;;5072953;28;8807;-69
2023/08/11 20:22:51;;;;;;;;;7.67;5.67;;;;;;;;5072785;28;8873;-67
2023/08/11 20:25:17;;;;;;;;;6.00;6.00;;;;;;;;5073266;28;8963;-66
2023/08/11 20:27:42;;;;;;;;;9.00;9.00;;;;;;;;5073170;28;8848;-69
2023/08/11 20:30:08;;;;;;;;;10.00;10.00;;;;;;;;5071722;28;9810;-68
2023/08/11 20:32:33;;;;;;;;;6.00;6.00;;;;;;;;5073066;28;8806;-67
2023/08/11 20:34:58;;;;;;;;;13.67;13.00;;;;;;;;5072939;28;8790;-68
2023/08/11 20:37:24;;;;;;;;;9.00;9.00;;;;;;;;5072867;28;8803;-66
2023/08/11 20:39:49;;;;;;;;;14.33;12.67;;;;;;;;5069553;28;8921;-65
2023/08/11 20:42:14;;;;;;;;;12.00;11.00;;;;;;;;5072587;28;8858;-66
2023/08/11 20:44:40;;;;;;;;;18.00;16.00;;;;;;;;5072724;28;8791;-65
2023/08/11 20:47:05;;;;;;;;;13.67;12.67;;;;;;;;5072689;28;8904;-66
2023/08/11 20:49:30;;;;;;;;;9.67;9.67;;;;;;;;5065947;28;8819;-64
2023/08/11 20:51:56;;;;;;;;;8.00;7.00;;;;;;;;5055985;28;8865;-66
2023/08/11 20:54:22;;;;;;;;;10.00;10.00;;;;;;;;5052341;28;8801;-66
2023/08/11 20:56:47;;;;;;;;;8.67;8.00;;;;;;;;5052683;28;8936;-65
2023/08/11 20:59:12;;;;;;;;;10.00;9.00;;;;;;;;5052461;28;10665;-64
2023/08/11 21:01:38;;;;;;;;;5.00;5.00;;;;;;;;5052444;28;8825;-65
2023/08/11 21:04:03;;;;;;;;;10.00;9.67;;;;;;;;5052442;28;8922;-65
2023/08/11 21:06:31;;;;;;;;;8.33;7.00;;;;;;;;5062232;28;8966;-68
2023/08/11 21:08:56;;;;;;;;;8.50;8.00;;;;;;;;5072019;28;8895;-67
2023/08/11 21:11:22;;;;;;;;;8.00;8.00;;;;;;;;5072349;28;9513;-65
2023/08/11 21:13:47;;;;;;;;;7.67;7.67;;;;;;;;5072290;28;8906;-64
2023/08/11 21:16:16;;;;;;;;;8.67;7.67;;;;;;;;5072039;28;8867;-64
2023/08/11 21:18:41;;;;;;;;;9.00;9.00;;;;;;;;5072028;28;8817;-62
2023/08/11 21:21:07;;;;;;;;;11.33;9.33;;;;;;;;5070149;28;8807;-66
2023/08/11 21:23:32;;;;;;;;;9.00;9.00;;;;;;;;5070575;28;8869;-63
2023/08/11 21:25:57;;;;;;;;;9.33;9.33;;;;;;;;5071687;28;8811;-63
2023/08/11 21:28:23;;;;;;;;;8.67;8.67;;;;;;;;5071872;28;8806;-63
2023/08/11 21:30:51;;;;;;;;;9.67;8.00;;;;;;;;5071864;28;8842;-63
2023/08/11 21:33:17;;;;;;;;;9.00;9.00;;;;;;;;5071960;28;8814;-63
2023/08/11 21:35:42;;;;;;;;;9.00;9.00;;;;;;;;5068474;28;9040;-63
2023/08/11 21:38:07;;;;;;;;;9.00;7.33;;;;;;;;5070203;28;8818;-63
2023/08/11 21:40:33;;;;;;;;;7.33;6.33;;;;;;;;5070202;28;8829;-63
2023/08/11 21:42:58;;;;;;;;;7.33;7.33;;;;;;;;5069726;28;8822;-63
2023/08/11 21:45:23;;;;;;;;;10.00;10.00;;;;;;;;5069327;28;8873;-65
2023/08/11 21:47:49;;;;;;;;;12.00;11.00;;;;;;;;5069739;28;8965;-65
2023/08/11 21:50:14;;;;;;;;;9.67;9.67;;;;;;;;5070156;28;8799;-64
2023/08/11 21:52:39;;;;;;;;;9.67;8.00;;;;;;;;5069881;28;9553;-64
2023/08/11 21:55:05;;;;;;;;;2.67;2.67;;;;;;;;5068666;28;8864;-65
2023/08/11 21:57:31;;;;;;;;;10.00;8.00;;;;;;;;5069948;28;8806;-65
2023/08/11 21:59:56;;;;;;;;;9.25;8.50;;;;;;;;5068359;28;8832;-65
2023/08/11 22:02:22;;;;;;;;;8.00;8.00;;;;;;;;5070106;28;8814;-64
2023/08/11 22:04:47;;;;;;;;;7.67;7.67;;;;;;;;5070256;28;8843;-64
2023/08/11 22:07:12;;;;;;;;;8.00;8.00;;;;;;;;5069993;28;8802;-64
2023/08/11 22:09:38;;;;;;;;;9.00;7.67;;;;;;;;5070005;28;8828;-62
2023/08/11 22:12:03;;;;;;;;;7.33;7.33;;;;;;;;5070519;28;8821;-64
2023/08/11 22:14:29;;;;;;;;;7.00;7.00;;;;;;;;5069706;28;8822;-63
2023/08/11 22:16:54;;;;;;;;;8.00;8.00;;;;;;;;5071069;28;8783;-63
2023/08/11 22:19:19;;;;;;;;;7.67;7.00;;;;;;;;5071309;28;8806;-62
2023/08/11 22:21:45;;;;;;;;;8.33;8.33;;;;;;;;5070407;28;8814;-63
2023/08/11 22:24:10;;;;;;;;;8.67;8.33;;;;;;;;5070864;28;8786;-63
2023/08/11 22:26:35;;;;;;;;;9.00;9.00;;;;;;;;5070787;28;8809;-64
2023/08/11 22:29:01;;;;;;;;;9.33;8.00;;;;;;;;5070627;28;9675;-64
2023/08/11 22:31:26;;;;;;;;;11.00;9.67;;;;;;;;5070334;28;8766;-62
2023/08/11 22:33:51;;;;;;;;;7.00;7.00;;;;;;;;5070566;28;8795;-63
2023/08/11 22:36:16;;;;;;;;;7.33;7.33;;;;;;;;5070667;28;8809;-63
